YTEF/TEF METAR and TAF weather

Enter ICAO airport designator
Station Type Date Time Source
YTEF METAR 2020/01/24 09:00 UTC NOAA

YTEF 240900Z AUTO 16010KT 9999 // NCD 39/09 Q1007


Station Type Date Time Source
YTEF Decoded METAR 2020/01/24 09:00 UTC NOAA

Station name not available
Jan 24, 2020 - 04:00 AM EST / 2020.01.24 0900 UTC
Wind: from the SSE (160 degrees) at 12 MPH (10 KT):0
Visibility: greater than 7 mile(s):0
Temperature: 102 F (39 C)
Heat index: 98.4 F (36.9 C):1
Dew Point: 48 F (9 C)
Relative Humidity: 16%
Pressure (altimeter): 29.74 in. Hg (1007 hPa)
ob: YTEF 240900Z AUTO 16010KT 9999 // NCD 39/09 Q1007
cycle: 9

Station Type Date Time Source
YTEF TAF 2017/06/24 02:03 UTC NOAA

TAF TAF YTEF 240051Z 2402/2414 12005KT CAVOK
FM240500 33005KT 9999 -SHRA SCT060 BKN100

Example: see airport list